Time;durP1;ratioP1;P1;durP2;ratioP2;P2;SDS_P1;SDS_P2;PMS_P1;PMS_P2;Temp;Humidity;BMP_temperature;BMP_pressure;BME280_temperature;BME280_humidity;BME280_pressure;Samples;Min_cycle;Max_cycle;Signal;HPM_P1;HPM_P2
2022/06/05 00:01:20;;;;;;;;;;;;;;;19.27;54.48;101615.16;5068644;28;19921;-61
2022/06/05 00:03:52;;;;;;;;;;;;;;;19.24;54.77;101618.25;5065416;28;19921;-62
2022/06/05 00:06:37;;;;;;;;;;;;;;;19.31;54.54;101619.09;5065887;28;19935;-63
2022/06/05 00:09:08;;;;;;;;;;;;;;;19.14;55.06;101611.38;5045339;28;19925;-62
2022/06/05 00:11:59;;;;;;;;;;;;;;;19.10;54.89;101604.75;5067410;28;19920;-62
2022/06/05 00:14:24;;;;;;;;;;;;;;;19.05;54.83;101596.47;5057863;28;19928;-61
2022/06/05 00:16:49;;;;;;;;;;;;;;;19.20;54.92;101588.25;5069314;28;19920;-62
2022/06/05 00:19:14;;;;;;;;;;;;;;;19.14;54.90;101594.44;5048846;28;19986;-61
2022/06/05 00:21:40;;;;;;;;;;;;;;;19.16;55.08;101593.22;5067468;28;19935;-62
2022/06/05 00:24:05;;;;;;;;;;;;;;;19.00;55.32;101590.81;5061296;28;19925;-62
2022/06/05 00:26:51;;;;;;;;;;;;;;;18.92;55.24;101592.66;5064053;28;20429;-62
2022/06/05 00:29:34;;;;;;;;;;;;;;;18.91;55.40;101585.59;5065237;28;19958;-62
2022/06/05 00:32:24;;;;;;;;;;;;;;;18.87;55.39;101584.34;5062641;28;20018;-63
2022/06/05 00:34:50;;;;;;;;;;;;;;;18.87;55.41;101576.28;5064500;28;20333;-62
2022/06/05 00:37:34;;;;;;;;;;;;;;;18.88;55.44;101569.88;5063620;28;19947;-61
2022/06/05 00:40:18;;;;;;;;;;;;;;;18.84;55.63;101562.44;5047690;28;19927;-62
2022/06/05 00:42:44;;;;;;;;;;;;;;;18.80;55.44;101562.81;5062399;28;19931;-63
2022/06/05 00:45:10;;;;;;;;;;;;;;;18.78;55.66;101561.34;5061814;28;19993;-62
2022/06/05 00:47:36;;;;;;;;;;;;;;;18.95;55.35;101564.56;5058651;28;20019;-62
2022/06/05 00:50:04;;;;;;;;;;;;;;;18.79;55.64;101561.16;5059859;28;20349;-62
2022/06/05 00:52:30;;;;;;;;;;;;;;;18.71;55.65;101563.19;5065860;28;19924;-62
2022/06/05 00:54:56;;;;;;;;;;;;;;;18.69;55.74;101566.06;5061157;28;19972;-63
2022/06/05 00:57:22;;;;;;;;;;;;;;;18.71;55.74;101557.81;5062027;28;20403;-62
2022/06/05 00:59:48;;;;;;;;;;;;;;;18.61;55.85;101559.00;5062448;28;19920;-62
2022/06/05 01:02:13;;;;;;;;;;;;;;;18.68;55.89;101569.78;5068540;28;19982;-61
2022/06/05 01:04:41;;;;;;;;;;;;;;;18.61;55.95;101564.38;5063790;28;19966;-61
2022/06/05 01:07:07;;;;;;;;;;;;;;;18.67;56.00;101563.59;5064521;28;19925;-62
2022/06/05 01:09:33;;;;;;;;;;;;;;;18.56;56.01;101566.81;5065415;28;20011;-61
2022/06/05 01:12:07;;;;;;;;;;;;;;;18.53;55.99;101561.84;5064370;28;20057;-62
2022/06/05 01:14:37;;;;;;;;;;;;;;;18.61;56.05;101561.69;5061927;28;19928;-61
2022/06/05 01:17:10;;;;;;;;;;;;;;;18.55;56.23;101567.81;5062485;28;19920;-62
2022/06/05 01:19:35;;;;;;;;;;;;;;;18.55;56.13;101570.50;5063447;28;19929;-61
2022/06/05 01:22:23;;;;;;;;;;;;;;;18.54;56.04;101587.66;5064714;28;19921;-62
2022/06/05 01:25:06;;;;;;;;;;;;;;;18.55;56.09;101632.28;5074398;28;20481;-61
2022/06/05 01:27:34;;;;;;;;;;;;;;;18.57;56.09;101627.56;5071033;28;19929;-62
2022/06/05 01:30:08;;;;;;;;;;;;;;;18.58;56.12;101597.00;5066636;28;20423;-62
2022/06/05 01:32:46;;;;;;;;;;;;;;;18.61;56.12;101634.22;5065052;28;19921;-62
2022/06/05 01:35:14;;;;;;;;;;;;;;;18.60;56.15;101637.91;5060681;28;19928;-62
2022/06/05 01:37:44;;;;;;;;;;;;;;;18.64;56.15;101590.00;5064006;28;19963;-61
2022/06/05 01:40:18;;;;;;;;;;;;;;;18.67;56.09;101563.59;5068402;28;19974;-61
2022/06/05 01:42:47;;;;;;;;;;;;;;;18.72;56.38;101589.00;5063432;28;19920;-62
2022/06/05 01:45:18;;;;;;;;;;;;;;;18.68;56.33;101610.06;5063782;28;19920;-62
2022/06/05 01:47:45;;;;;;;;;;;;;;;18.69;56.58;101599.13;5065753;28;19924;-62
2022/06/05 01:50:14;;;;;;;;;;;;;;;18.73;56.19;101582.59;5076392;28;20016;-63
2022/06/05 01:52:58;;;;;;;;;;;;;;;18.75;56.68;101569.81;5062336;28;20039;-63
2022/06/05 01:55:27;;;;;;;;;;;;;;;18.78;56.52;101564.03;5061256;28;20009;-61
2022/06/05 01:57:54;;;;;;;;;;;;;;;18.76;56.38;101566.09;5062153;28;20956;-62
2022/06/05 02:00:21;;;;;;;;;;;;;;;18.74;56.72;101562.81;5062791;28;19939;-61
2022/06/05 02:02:51;;;;;;;;;;;;;;;18.69;57.26;101545.41;5063315;28;19920;-62
2022/06/05 02:05:25;;;;;;;;;;;;;;;18.59;57.55;101542.25;5064127;28;19928;-62
2022/06/05 02:07:54;;;;;;;;;;;;;;;18.54;57.72;101534.78;5063781;28;20306;-62
2022/06/05 02:10:40;;;;;;;;;;;;;;;18.50;57.36;101525.47;5065787;28;19921;-62
2022/06/05 02:13:06;;;;;;;;;;;;;;;18.47;57.70;101515.13;5063221;28;19967;-62
2022/06/05 02:15:31;;;;;;;;;;;;;;;18.39;57.82;101507.22;5063294;28;19968;-62
2022/06/05 02:17:57;;;;;;;;;;;;;;;18.32;58.45;101499.13;5065179;28;19930;-62
2022/06/05 02:20:23;;;;;;;;;;;;;;;18.29;58.10;101488.78;5074600;28;19959;-62
2022/06/05 02:22:49;;;;;;;;;;;;;;;18.29;58.44;101480.72;5070730;28;20018;-62
2022/06/05 02:25:15;;;;;;;;;;;;;;;18.28;58.18;101479.06;5049267;28;19925;-63
2022/06/05 02:27:41;;;;;;;;;;;;;;;18.18;58.20;101474.06;5066847;28;19936;-62
2022/06/05 02:30:07;;;;;;;;;;;;;;;18.19;58.25;101464.13;5068724;28;19924;-61
2022/06/05 02:32:38;;;;;;;;;;;;;;;18.15;58.27;101452.97;5066010;28;19925;-63
2022/06/05 02:35:03;;;;;;;;;;;;;;;18.19;58.26;101458.78;5066927;28;20007;-63
2022/06/05 02:37:34;;;;;;;;;;;;;;;18.31;58.22;101446.47;5068706;28;19948;-62
2022/06/05 02:40:15;;;;;;;;;;;;;;;18.08;58.85;101442.22;5066840;28;19924;-62
2022/06/05 02:42:43;;;;;;;;;;;;;;;18.05;59.97;101429.13;5066723;28;20387;-61
2022/06/05 02:45:08;;;;;;;;;;;;;;;17.86;60.37;101428.81;5070734;28;19957;-63
2022/06/05 02:47:38;;;;;;;;;;;;;;;17.78;60.79;101420.94;5066179;28;20379;-63
2022/06/05 02:50:12;;;;;;;;;;;;;;;17.70;61.40;101413.84;5066083;28;19970;-61
2022/06/05 02:52:38;;;;;;;;;;;;;;;17.63;62.18;101402.25;5072970;28;19928;-63
2022/06/05 02:55:04;;;;;;;;;;;;;;;17.53;62.08;101391.03;5067653;28;19928;-62
2022/06/05 02:57:29;;;;;;;;;;;;;;;17.53;61.96;101391.88;5063980;28;19932;-61
2022/06/05 02:59:55;;;;;;;;;;;;;;;17.49;62.33;101390.59;5065234;28;19952;-61
2022/06/05 03:05:04;;;;;;;;;;;;;;;17.45;62.61;101383.94;5065117;28;19927;-62
2022/06/05 03:07:29;;;;;;;;;;;;;;;17.34;61.92;101383.47;5066149;28;19960;-62
2022/06/05 03:09:55;;;;;;;;;;;;;;;17.31;62.23;101377.66;5067159;28;19928;-62
2022/06/05 03:12:20;;;;;;;;;;;;;;;17.27;62.82;101366.50;5066975;28;20999;-62
2022/06/05 03:14:45;;;;;;;;;;;;;;;17.23;62.86;101370.59;5066926;28;19974;-62
2022/06/05 03:17:11;;;;;;;;;;;;;;;17.18;62.15;101367.66;5069199;28;19955;-61
2022/06/05 03:19:36;;;;;;;;;;;;;;;17.41;61.49;101366.63;5068349;28;19942;-62
2022/06/05 03:22:01;;;;;;;;;;;;;;;17.37;62.15;101371.50;5069576;28;20275;-62
2022/06/05 03:24:26;;;;;;;;;;;;;;;17.20;62.05;101387.03;5068617;28;19959;-61
2022/06/05 03:26:51;;;;;;;;;;;;;;;17.21;62.01;101383.34;5071909;28;20278;-63
2022/06/05 03:29:17;;;;;;;;;;;;;;;17.20;61.74;101390.56;5070843;28;19973;-62
2022/06/05 03:31:42;;;;;;;;;;;;;;;16.97;61.67;101393.38;5049822;28;19928;-62
2022/06/05 03:34:08;;;;;;;;;;;;;;;16.95;62.16;101400.78;5064559;28;19921;-62
2022/06/05 03:36:34;;;;;;;;;;;;;;;16.96;62.33;101402.44;5064329;28;19999;-62
2022/06/05 03:38:59;;;;;;;;;;;;;;;16.97;62.21;101404.09;5066356;28;20007;-61
2022/06/05 03:41:25;;;;;;;;;;;;;;;16.99;62.82;101406.59;5063597;28;20868;-62
2022/06/05 03:43:51;;;;;;;;;;;;;;;16.97;61.70;101404.09;5063654;28;19929;-61
2022/06/05 03:46:16;;;;;;;;;;;;;;;16.92;63.06;101395.81;5042744;28;19924;-62
2022/06/05 03:48:42;;;;;;;;;;;;;;;16.92;62.47;101396.66;5063909;28;20015;-62
2022/06/05 03:51:08;;;;;;;;;;;;;;;16.98;62.30;101395.06;5064347;28;19921;-61
2022/06/05 03:53:34;;;;;;;;;;;;;;;17.03;62.06;101402.56;5048817;28;19921;-61
2022/06/05 03:55:59;;;;;;;;;;;;;;;16.97;62.11;101396.06;5064750;28;19955;-61
2022/06/05 03:58:24;;;;;;;;;;;;;;;17.15;62.27;101400.19;5072321;28;20295;-61
2022/06/05 04:00:52;;;;;;;;;;;;;;;16.97;61.98;101401.44;5065362;28;20014;-64
2022/06/05 04:03:18;;;;;;;;;;;;;;;16.99;61.87;101410.13;5046863;28;20277;-62
2022/06/05 04:05:44;;;;;;;;;;;;;;;17.00;61.70;101403.75;5066443;28;19924;-62
2022/06/05 04:08:09;;;;;;;;;;;;;;;17.12;61.34;101405.94;5063122;28;20403;-61
2022/06/05 04:10:36;;;;;;;;;;;;;;;16.97;61.84;101398.75;5065850;28;19955;-62
2022/06/05 04:13:01;;;;;;;;;;;;;;;17.10;61.44;101402.59;5048010;28;20594;-62
2022/06/05 04:15:26;;;;;;;;;;;;;;;16.94;61.87;101393.78;5064876;28;19924;-61
2022/06/05 04:17:51;;;;;;;;;;;;;;;16.94;61.72;101380.38;5063090;28;20366;-61
2022/06/05 04:20:17;;;;;;;;;;;;;;;16.92;61.81;101382.41;5065030;28;19920;-63
2022/06/05 04:22:42;;;;;;;;;;;;;;;17.00;61.74;101386.81;5065556;28;20415;-62
2022/06/05 04:25:09;;;;;;;;;;;;;;;16.92;61.62;101385.09;5065073;28;19920;-62
2022/06/05 04:27:34;;;;;;;;;;;;;;;17.00;61.57;101374.28;5066465;28;19925;-61
2022/06/05 04:29:59;;;;;;;;;;;;;;;16.73;61.74;101376.66;5065239;28;19921;-61
2022/06/05 04:32:25;;;;;;;;;;;;;;;16.70;61.98;101379.72;5064495;28;19927;-62
2022/06/05 04:34:50;;;;;;;;;;;;;;;16.77;61.60;101375.28;5064603;28;19975;-61
2022/06/05 04:37:15;;;;;;;;;;;;;;;16.75;61.93;101380.00;5048907;28;19931;-62
2022/06/05 04:39:41;;;;;;;;;;;;;;;16.77;61.79;101380.63;5065053;28;19920;-62
2022/06/05 04:42:06;;;;;;;;;;;;;;;16.74;61.36;101378.34;5063569;28;19932;-62
2022/06/05 04:44:31;;;;;;;;;;;;;;;16.76;61.44;101373.63;5068511;28;19920;-62
2022/06/05 04:46:56;;;;;;;;;;;;;;;16.75;61.41;101379.16;5063767;28;19928;-62
2022/06/05 04:49:21;;;;;;;;;;;;;;;16.77;61.60;101372.59;5061761;28;19943;-62
2022/06/05 04:51:47;;;;;;;;;;;;;;;16.81;61.71;101368.53;5064133;28;20574;-62
2022/06/05 04:54:13;;;;;;;;;;;;;;;16.75;61.70;101374.63;5063876;28;19927;-62
2022/06/05 04:56:39;;;;;;;;;;;;;;;16.72;61.69;101377.69;5062400;28;19940;-62
2022/06/05 04:59:04;;;;;;;;;;;;;;;16.76;62.02;101376.28;5062828;28;19928;-62
2022/06/05 05:01:31;;;;;;;;;;;;;;;16.75;62.10;101377.31;5065059;28;19920;-62
2022/06/05 05:03:57;;;;;;;;;;;;;;;16.70;62.25;101371.69;5062170;28;19925;-63
2022/06/05 05:06:24;;;;;;;;;;;;;;;16.68;62.21;101371.06;5061932;28;20334;-63
2022/06/05 05:08:49;;;;;;;;;;;;;;;16.67;62.15;101374.72;5064083;28;20001;-62
2022/06/05 05:11:15;;;;;;;;;;;;;;;16.67;62.01;101383.63;5060497;28;19959;-62
2022/06/05 05:13:41;;;;;;;;;;;;;;;16.69;61.87;101380.75;5063019;28;19985;-62
2022/06/05 05:16:06;;;;;;;;;;;;;;;16.72;62.12;101392.94;5062149;28;20298;-62
2022/06/05 05:18:31;;;;;;;;;;;;;;;16.63;61.96;101389.53;5063301;28;19929;-62
2022/06/05 05:21:23;;;;;;;;;;;;;;;16.63;62.04;101387.69;5067004;28;19921;-61
2022/06/05 05:23:49;;;;;;;;;;;;;;;16.71;61.96;101389.41;5058704;28;19921;-62
2022/06/05 05:26:19;;;;;;;;;;;;;;;16.70;62.08;101387.75;5062396;28;19924;-60
2022/06/05 05:28:44;;;;;;;;;;;;;;;16.68;61.90;101384.47;5046299;28;20324;-63
2022/06/05 05:31:11;;;;;;;;;;;;;;;16.71;61.98;101386.75;5061742;28;20039;-61
2022/06/05 05:33:38;;;;;;;;;;;;;;;16.83;62.44;101380.88;5062245;28;20024;-61
2022/06/05 05:36:03;;;;;;;;;;;;;;;16.70;62.42;101382.41;5063027;28;20272;-59
2022/06/05 05:38:28;;;;;;;;;;;;;;;16.69;62.30;101380.75;5063141;28;19927;-63
2022/06/05 05:43:38;;;;;;;;;;;;;;;16.74;62.63;101386.38;5066052;28;20007;-60
2022/06/05 05:46:06;;;;;;;;;;;;;;;16.79;62.12;101383.94;5070040;28;20007;-62
2022/06/05 05:48:32;;;;;;;;;;;;;;;16.77;62.85;101388.66;5069026;28;19999;-63
2022/06/05 05:50:57;;;;;;;;;;;;;;;16.76;62.36;101381.66;5066200;28;20387;-61
2022/06/05 05:53:22;;;;;;;;;;;;;;;16.81;62.32;101386.44;5062860;28;19927;-61
2022/06/05 05:55:47;;;;;;;;;;;;;;;16.85;62.51;101384.19;5066545;28;19951;-61
2022/06/05 05:58:12;;;;;;;;;;;;;;;16.80;62.34;101374.91;5069056;28;19920;-61
2022/06/05 06:00:38;;;;;;;;;;;;;;;16.79;62.25;101367.88;5062014;28;20323;-61
2022/06/05 06:03:03;;;;;;;;;;;;;;;16.86;62.51;101359.91;5069352;28;19946;-61
2022/06/05 06:05:30;;;;;;;;;;;;;;;16.87;62.46;101360.75;5067051;28;20279;-61
2022/06/05 06:07:55;;;;;;;;;;;;;;;16.85;62.52;101355.56;5069301;28;19931;-62
2022/06/05 06:10:22;;;;;;;;;;;;;;;16.90;62.34;101355.84;5062647;28;20011;-61
2022/06/05 06:12:47;;;;;;;;;;;;;;;16.87;62.79;101340.13;5069715;28;19924;-60
2022/06/05 06:15:12;;;;;;;;;;;;;;;16.91;62.59;101341.41;5063640;28;20382;-61
2022/06/05 06:17:37;;;;;;;;;;;;;;;16.90;62.83;101338.91;5069229;28;20001;-61
2022/06/05 06:20:04;;;;;;;;;;;;;;;16.97;62.57;101325.59;5069450;28;19924;-61
2022/06/05 06:22:29;;;;;;;;;;;;;;;17.24;62.42;101326.69;5065907;28;19971;-61
2022/06/05 06:24:54;;;;;;;;;;;;;;;17.01;62.60;101330.38;5069560;28;20025;-61
2022/06/05 06:27:19;;;;;;;;;;;;;;;17.02;62.66;101325.88;5066919;28;19928;-61
2022/06/05 06:29:44;;;;;;;;;;;;;;;17.06;62.39;101317.25;5067330;28;19920;-60
2022/06/05 06:32:10;;;;;;;;;;;;;;;17.17;62.37;101313.22;5060140;28;19920;-62
2022/06/05 06:34:35;;;;;;;;;;;;;;;17.20;62.83;101307.50;5067888;28;20413;-62
2022/06/05 06:37:00;;;;;;;;;;;;;;;17.20;62.61;101309.31;5065324;28;20003;-61
2022/06/05 06:39:28;;;;;;;;;;;;;;;17.26;62.50;101305.88;5050649;28;19939;-61
2022/06/05 06:41:53;;;;;;;;;;;;;;;17.33;62.54;101305.94;5063603;28;19921;-61
2022/06/05 06:44:19;;;;;;;;;;;;;;;17.48;62.53;101292.44;5066314;28;20450;-63
2022/06/05 06:46:44;;;;;;;;;;;;;;;17.40;62.52;101290.72;5069265;28;19920;-61
2022/06/05 06:49:09;;;;;;;;;;;;;;;17.40;62.52;101290.72;5068667;28;19921;-61
2022/06/05 06:51:34;;;;;;;;;;;;;;;17.51;62.70;101283.97;5065960;28;19956;-62
2022/06/05 06:54:00;;;;;;;;;;;;;;;17.60;62.79;101284.66;5070576;28;19946;-61
2022/06/05 06:56:26;;;;;;;;;;;;;;;17.59;62.56;101273.09;5065229;28;19958;-62
2022/06/05 06:58:52;;;;;;;;;;;;;;;17.63;62.69;101294.16;5068966;28;19924;-61
2022/06/05 07:01:17;;;;;;;;;;;;;;;17.68;62.56;101286.34;5071096;28;19924;-61
2022/06/05 07:03:42;;;;;;;;;;;;;;;17.68;62.69;101299.75;5074619;28;19926;-61
2022/06/05 07:06:09;;;;;;;;;;;;;;;17.75;62.64;101292.56;5069885;28;19920;-62
2022/06/05 07:08:35;;;;;;;;;;;;;;;17.79;62.55;101288.47;5070793;28;19929;-61
2022/06/05 07:11:00;;;;;;;;;;;;;;;17.86;62.58;101283.16;5073661;28;19938;-61
2022/06/05 07:13:25;;;;;;;;;;;;;;;17.98;62.46;101272.66;5072277;28;19920;-63
2022/06/05 07:15:51;;;;;;;;;;;;;;;17.98;62.87;101259.25;5072091;28;19921;-63
2022/06/05 07:18:17;;;;;;;;;;;;;;;18.08;62.53;101267.78;5072160;28;20536;-62
2022/06/05 07:20:43;;;;;;;;;;;;;;;18.13;62.27;101268.00;5069272;28;19920;-63
2022/06/05 07:23:09;;;;;;;;;;;;;;;18.21;62.29;101269.66;5065379;28;19927;-63
2022/06/05 07:25:35;;;;;;;;;;;;;;;18.29;61.97;101265.97;5064893;28;20035;-64
2022/06/05 07:28:00;;;;;;;;;;;;;;;18.38;62.25;101264.75;5063438;28;19921;-63
2022/06/05 07:30:25;;;;;;;;;;;;;;;18.37;62.01;101257.75;5063443;28;19928;-63
2022/06/05 07:32:51;;;;;;;;;;;;;;;18.43;62.84;101253.41;5063661;28;19920;-63
2022/06/05 07:35:16;;;;;;;;;;;;;;;18.59;62.01;101257.56;5048397;28;19936;-63
2022/06/05 07:37:42;;;;;;;;;;;;;;;18.60;62.06;101251.16;5047667;28;19928;-64
2022/06/05 07:40:07;;;;;;;;;;;;;;;18.73;61.76;101246.81;5065210;28;20424;-63
2022/06/05 07:42:35;;;;;;;;;;;;;;;18.73;61.54;101254.88;5063143;28;19947;-63
2022/06/05 07:45:00;;;;;;;;;;;;;;;18.76;61.49;101241.03;5061418;28;19928;-63
2022/06/05 07:47:25;;;;;;;;;;;;;;;18.78;61.80;101241.66;5060342;28;19924;-63
2022/06/05 07:49:50;;;;;;;;;;;;;;;18.79;61.91;101244.16;5064080;28;19935;-63
2022/06/05 07:54:59;;;;;;;;;;;;;;;18.87;61.46;101240.44;5060924;28;19932;-63
2022/06/05 07:57:24;;;;;;;;;;;;;;;18.93;61.62;101234.22;5063502;28;19928;-63
2022/06/05 07:59:50;;;;;;;;;;;;;;;19.01;61.58;101226.97;5063358;28;20370;-63
2022/06/05 08:02:20;;;;;;;;;;;;;;;19.09;61.47;101226.78;5065784;28;19959;-60
2022/06/05 08:04:45;;;;;;;;;;;;;;;19.12;61.34;101226.38;5048262;28;20015;-60
2022/06/05 08:07:12;;;;;;;;;;;;;;;19.16;61.45;101211.50;5049231;28;20010;-62
2022/06/05 08:09:39;;;;;;;;;;;;;;;19.27;61.33;101218.06;5066325;28;19939;-59
2022/06/05 08:12:04;;;;;;;;;;;;;;;19.28;61.30;101213.53;5065299;28;19943;-60
2022/06/05 08:14:32;;;;;;;;;;;;;;;19.41;61.38;101209.97;5063159;28;19921;-59
2022/06/05 08:16:57;;;;;;;;;;;;;;;19.44;60.86;101210.38;5064251;28;19966;-59
2022/06/05 08:19:23;;;;;;;;;;;;;;;19.51;61.09;101212.19;5067093;28;19925;-62
2022/06/05 08:21:49;;;;;;;;;;;;;;;19.61;61.36;101201.81;5049509;28;19920;-60
2022/06/05 08:24:14;;;;;;;;;;;;;;;19.81;60.87;101200.91;5058970;28;19925;-59
2022/06/05 08:26:40;;;;;;;;;;;;;;;20.01;61.01;101196.28;5068904;28;19928;-60
2022/06/05 08:29:05;;;;;;;;;;;;;;;20.22;60.36;101196.97;5066020;28;19928;-60
2022/06/05 08:31:31;;;;;;;;;;;;;;;20.23;60.19;101193.25;5064430;28;19970;-60
2022/06/05 08:33:57;;;;;;;;;;;;;;;20.33;60.12;101197.31;5068832;28;19928;-60
2022/06/05 08:36:23;;;;;;;;;;;;;;;20.33;60.42;101194.63;5066975;28;19921;-60
2022/06/05 08:41:51;;;;;;;;;;;;;;;20.58;59.81;101201.91;5076935;28;19927;-60
2022/06/05 08:44:35;;;;;;;;;;;;;;;20.62;59.86;101201.22;5074611;28;19926;-61
2022/06/05 08:47:03;;;;;;;;;;;;;;;20.66;60.16;101207.00;5067859;28;19928;-61
2022/06/05 08:49:47;;;;;;;;;;;;;;;20.71;59.84;101204.47;5071760;28;20252;-61
2022/06/05 08:52:18;;;;;;;;;;;;;;;20.77;59.58;101203.59;5064666;28;19920;-60
2022/06/05 08:54:53;;;;;;;;;;;;;;;20.74;59.75;101204.06;5069537;28;19927;-61
2022/06/05 08:57:23;;;;;;;;;;;;;;;20.73;59.69;101210.50;5069116;28;19928;-61
2022/06/05 08:59:57;;;;;;;;;;;;;;;20.71;59.85;101209.88;5070652;28;20480;-61
2022/06/05 09:02:41;;;;;;;;;;;;;;;20.70;60.50;101209.06;5075873;28;20382;-61
2022/06/05 09:05:19;;;;;;;;;;;;;;;20.75;59.55;101211.09;5067854;28;19999;-61
2022/06/05 09:07:47;;;;;;;;;;;;;;;20.63;60.08;101213.66;5067416;28;19921;-61
2022/06/05 09:10:15;;;;;;;;;;;;;;;20.61;60.07;101217.66;5072158;28;20363;-60
2022/06/05 09:13:12;;;;;;;;;;;;;;;20.57;60.06;101214.53;5071567;28;19974;-63
2022/06/05 09:15:56;;;;;;;;;;;;;;;20.56;60.33;101211.03;5003579;28;19920;-60
2022/06/05 09:18:23;;;;;;;;;;;;;;;20.49;60.64;101206.72;5072388;28;19973;-59
2022/06/05 09:20:55;;;;;;;;;;;;;;;20.50;60.12;101205.69;5070243;28;19921;-60
2022/06/05 09:23:22;;;;;;;;;;;;;;;20.51;60.53;101205.47;5059004;28;19917;-60
2022/06/05 09:26:02;;;;;;;;;;;;;;;20.45;61.14;101206.34;5073764;28;19924;-60
2022/06/05 09:28:47;;;;;;;;;;;;;;;20.41;60.75;101203.28;5072524;28;19935;-61
2022/06/05 09:31:36;;;;;;;;;;;;;;;20.37;60.98;101199.34;5076208;28;20327;-60
2022/06/05 09:34:08;;;;;;;;;;;;;;;20.33;61.51;101202.72;5056840;28;19928;-61
2022/06/05 09:36:33;;;;;;;;;;;;;;;20.27;61.13;101197.16;5070286;28;20400;-61
2022/06/05 09:39:02;;;;;;;;;;;;;;;20.27;61.26;101199.84;5067167;28;19956;-61
2022/06/05 09:41:50;;;;;;;;;;;;;;;20.24;61.17;101189.50;5076331;28;19929;-60
2022/06/05 09:44:42;;;;;;;;;;;;;;;20.23;62.24;101187.84;5065688;28;20008;-61
2022/06/05 09:47:13;;;;;;;;;;;;;;;20.18;61.76;101179.59;5073623;28;19970;-60
2022/06/05 09:49:45;;;;;;;;;;;;;;;20.18;62.13;101184.97;5074307;28;19978;-61
2022/06/05 09:52:12;;;;;;;;;;;;;;;20.14;62.12;101178.41;5064286;28;19921;-56
2022/06/05 09:54:42;;;;;;;;;;;;;;;20.14;62.08;101164.94;5070311;28;19920;-56
2022/06/05 10:00:07;;;;;;;;;;;;;;;20.16;62.32;101160.16;5068060;28;20433;-57
2022/06/05 10:02:33;;;;;;;;;;;;;;;20.14;63.05;101152.28;5072863;28;19925;-60
2022/06/05 10:04:58;;;;;;;;;;;;;;;20.11;63.77;101149.22;5066854;28;19928;-58
2022/06/05 10:07:37;;;;;;;;;;;;;;;20.13;62.53;101147.16;5081076;28;20014;-57
2022/06/05 10:10:04;;;;;;;;;;;;;;;20.13;63.56;101147.94;5072121;28;19925;-57
2022/06/05 10:12:38;;;;;;;;;;;;;;;20.13;62.65;101144.47;5068709;28;20365;-57
2022/06/05 10:15:16;;;;;;;;;;;;;;;20.16;63.57;101144.00;5074657;28;19959;-57
2022/06/05 10:17:41;;;;;;;;;;;;;;;20.17;64.05;101145.66;5072553;28;19927;-57
2022/06/05 10:20:06;;;;;;;;;;;;;;;20.18;65.06;101147.28;5073826;28;20295;-56
2022/06/05 10:22:34;;;;;;;;;;;;;;;20.17;63.92;101140.25;5053972;28;19921;-58
2022/06/05 10:25:12;;;;;;;;;;;;;;;20.15;64.60;101145.06;5083853;28;19920;-57
2022/06/05 10:27:37;;;;;;;;;;;;;;;20.14;63.76;101148.78;5087138;28;19973;-56
2022/06/05 10:30:05;;;;;;;;;;;;;;;20.13;66.78;101147.16;5072317;28;20019;-57
2022/06/05 10:32:43;;;;;;;;;;;;;;;20.08;64.88;101144.28;5067126;28;20363;-58
2022/06/05 10:35:18;;;;;;;;;;;;;;;20.07;67.97;101145.31;5071040;28;19923;-57
2022/06/05 10:37:47;;;;;;;;;;;;;;;20.04;66.08;101138.50;5072534;28;19928;-57
2022/06/05 10:40:17;;;;;;;;;;;;;;;20.03;65.67;101145.75;5070354;28;19924;-57
2022/06/05 10:42:52;;;;;;;;;;;;;;;20.01;65.47;101139.75;5073501;28;20003;-57
2022/06/05 10:45:28;;;;;;;;;;;;;;;19.95;66.47;101132.53;5070019;28;19978;-58
2022/06/05 10:47:53;;;;;;;;;;;;;;;19.92;67.81;101132.94;5067660;28;19927;-62
2022/06/05 10:50:28;;;;;;;;;;;;;;;19.88;69.54;101137.09;5064714;28;19921;-63
2022/06/05 10:53:12;;;;;;;;;;;;;;;19.79;68.62;101133.03;5063963;28;19920;-63
2022/06/05 10:55:40;;;;;;;;;;;;;;;19.69;67.45;101133.50;5048919;28;20525;-63
2022/06/05 10:58:17;;;;;;;;;;;;;;;19.62;68.13;101136.22;5064400;28;19917;-63
2022/06/05 11:01:01;;;;;;;;;;;;;;;19.63;67.35;101135.19;5064582;28;19920;-63
2022/06/05 11:03:48;;;;;;;;;;;;;;;19.59;66.78;101128.59;5068572;28;19931;-62
2022/06/05 11:06:19;;;;;;;;;;;;;;;19.55;70.91;101130.06;5066262;28;19920;-62
2022/06/05 11:08:56;;;;;;;;;;;;;;;19.46;70.07;101130.31;5068416;28;19917;-62
2022/06/05 11:14:11;;;;;;;;;;;;;;;19.32;70.86;101123.34;5063755;28;20104;-62
2022/06/05 11:16:46;;;;;;;;;;;;;;;19.26;69.51;101124.19;5064189;28;19939;-63
2022/06/05 11:19:14;;;;;;;;;;;;;;;19.24;70.14;101126.28;5066157;28;20001;-63
2022/06/05 11:21:46;;;;;;;;;;;;;;;19.21;72.72;101127.50;5067638;28;20015;-62
2022/06/05 11:24:35;;;;;;;;;;;;;;;19.17;69.17;101120.91;5063376;28;20598;-63
2022/06/05 11:27:06;;;;;;;;;;;;;;;19.14;69.45;101115.97;5058453;28;20382;-62
2022/06/05 11:29:40;;;;;;;;;;;;;;;19.11;72.15;101109.16;5065016;28;19963;-63
2022/06/05 11:32:26;;;;;;;;;;;;;;;19.09;76.88;101113.91;5065381;28;20049;-62
2022/06/05 11:34:51;;;;;;;;;;;;;;;19.01;72.76;101103.34;5063323;28;19936;-62
2022/06/05 11:37:22;;;;;;;;;;;;;;;19.04;71.29;101105.66;5064162;28;19925;-63
2022/06/05 11:39:59;;;;;;;;;;;;;;;18.95;73.68;101099.66;5069969;28;19977;-63
2022/06/05 11:42:31;;;;;;;;;;;;;;;18.88;73.57;101102.38;5067217;28;20020;-62
2022/06/05 11:44:59;;;;;;;;;;;;;;;18.85;80.19;101102.75;5062420;28;21786;-62
2022/06/05 11:47:29;;;;;;;;;;;;;;;18.78;72.99;101096.59;5063273;28;19957;-62
2022/06/05 11:50:02;;;;;;;;;;;;;;;18.75;73.08;101097.03;5063346;28;19920;-63
2022/06/05 11:52:46;;;;;;;;;;;;;;;18.73;72.73;101099.06;5068774;28;19925;-63
2022/06/05 11:55:11;;;;;;;;;;;;;;;18.72;77.43;101102.81;5066266;28;19920;-63
2022/06/05 11:57:36;;;;;;;;;;;;;;;18.64;77.68;101096.63;5063831;28;19928;-64
2022/06/05 12:00:18;;;;;;;;;;;;;;;18.60;73.62;101100.75;5063438;28;19950;-64
2022/06/05 12:02:51;;;;;;;;;;;;;;;18.61;74.46;101099.75;5062441;28;20008;-63
2022/06/05 12:05:27;;;;;;;;;;;;;;;18.57;75.63;101090.44;5062709;28;20051;-63
2022/06/05 12:07:58;;;;;;;;;;;;;;;18.56;74.84;101096.84;5061073;28;19947;-63
2022/06/05 12:10:28;;;;;;;;;;;;;;;18.58;79.69;101092.09;5063215;28;19925;-64
2022/06/05 12:13:11;;;;;;;;;;;;;;;18.53;78.30;101089.19;5060479;28;19985;-64
2022/06/05 12:15:49;;;;;;;;;;;;;;;18.42;76.14;101083.41;5046363;28;20394;-63
2022/06/05 12:18:21;;;;;;;;;;;;;;;18.38;77.26;101084.88;5063641;28;19973;-63
2022/06/05 12:20:46;;;;;;;;;;;;;;;18.41;79.95;101075.59;5063540;28;20796;-63
2022/06/05 12:23:14;;;;;;;;;;;;;;;18.40;76.31;101080.13;5064687;28;19928;-63
2022/06/05 12:25:39;;;;;;;;;;;;;;;18.39;77.94;101083.84;5066653;28;19931;-63
2022/06/05 12:28:11;;;;;;;;;;;;;;;18.38;78.03;101074.16;5064737;28;19928;-64
2022/06/05 12:30:40;;;;;;;;;;;;;;;18.38;80.34;101076.84;5072183;28;19976;-62
2022/06/05 12:33:27;;;;;;;;;;;;;;;18.35;76.26;101071.06;5061588;28;19920;-62
2022/06/05 12:35:54;;;;;;;;;;;;;;;18.31;76.21;101070.66;5062917;28;19955;-60
2022/06/05 12:38:19;;;;;;;;;;;;;;;18.30;77.06;101066.28;5063661;28;19998;-61
2022/06/05 12:40:52;;;;;;;;;;;;;;;18.27;77.05;101062.16;5062849;28;20383;-61
2022/06/05 12:43:28;;;;;;;;;;;;;;;18.25;77.47;101066.09;5065362;28;20371;-62
2022/06/05 12:45:58;;;;;;;;;;;;;;;18.21;82.88;101056.81;5064435;28;19927;-63
2022/06/05 12:48:24;;;;;;;;;;;;;;;18.13;81.97;101053.31;5068089;28;19928;-63
2022/06/05 12:50:52;;;;;;;;;;;;;;;18.10;78.31;101050.19;5068781;28;19924;-60
2022/06/05 12:53:40;;;;;;;;;;;;;;;18.11;79.68;101050.00;5065330;28;19925;-61
2022/06/05 12:56:11;;;;;;;;;;;;;;;18.13;77.97;101045.25;5060008;28;19959;-61
2022/06/05 12:58:50;;;;;;;;;;;;;;;18.18;81.91;101047.31;5064071;28;20470;-61
2022/06/05 13:01:21;;;;;;;;;;;;;;;18.15;78.98;101045.88;5062608;28;19966;-62
2022/06/05 13:03:52;;;;;;;;;;;;;;;18.14;78.35;101044.22;5066102;28;19920;-62